sensor_id;sensor_type;location;lat;lon;timestamp;P1;durP1;ratioP1;P2;durP2;ratioP2
38266;SDS011;24063;51.794;19.578;2022-09-09T00:01:41;10.30;;;10.30;;
38266;SDS011;24063;51.794;19.578;2022-09-09T00:02:31;9.67;;;9.67;;
38266;SDS011;24063;51.794;19.578;2022-09-09T00:03:40;10.10;;;10.10;;
38266;SDS011;24063;51.794;19.578;2022-09-09T00:05:38;9.81;;;9.81;;
38266;SDS011;24063;51.794;19.578;2022-09-09T00:07:51;9.85;;;9.85;;
38266;SDS011;24063;51.794;19.578;2022-09-09T00:10:16;8.89;;;8.89;;
38266;SDS011;24063;51.794;19.578;2022-09-09T00:11:42;10.01;;;10.01;;
38266;SDS011;24063;51.794;19.578;2022-09-09T00:14:42;9.47;;;9.47;;
38266;SDS011;24063;51.794;19.578;2022-09-09T00:20:01;9.97;;;9.97;;
38266;SDS011;24063;51.794;19.578;2022-09-09T00:21:24;9.47;;;9.47;;
38266;SDS011;24063;51.794;19.578;2022-09-09T00:22:34;10.32;;;10.32;;
38266;SDS011;24063;51.794;19.578;2022-09-09T00:23:55;9.94;;;9.94;;
38266;SDS011;24063;51.794;19.578;2022-09-09T00:25:02;9.57;;;9.57;;
38266;SDS011;24063;51.794;19.578;2022-09-09T00:28:01;9.88;;;9.88;;
38266;SDS011;24063;51.794;19.578;2022-09-09T00:30:17;9.26;;;9.26;;
38266;SDS011;24063;51.794;19.578;2022-09-09T00:31:27;9.32;;;9.32;;
38266;SDS011;24063;51.794;19.578;2022-09-09T00:32:30;10.19;;;10.19;;
38266;SDS011;24063;51.794;19.578;2022-09-09T00:33:36;10.27;;;10.27;;
38266;SDS011;24063;51.794;19.578;2022-09-09T00:34:50;9.77;;;9.77;;
38266;SDS011;24063;51.794;19.578;2022-09-09T00:36:00;10.21;;;10.21;;
38266;SDS011;24063;51.794;19.578;2022-09-09T00:37:04;9.84;;;9.84;;
38266;SDS011;24063;51.794;19.578;2022-09-09T00:38:13;9.72;;;9.72;;
38266;SDS011;24063;51.794;19.578;2022-09-09T00:40:48;9.93;;;9.93;;
38266;SDS011;24063;51.794;19.578;2022-09-09T00:43:32;9.01;;;9.01;;
38266;SDS011;24063;51.794;19.578;2022-09-09T00:44:37;9.71;;;9.71;;
38266;SDS011;24063;51.794;19.578;2022-09-09T00:48:11;10.05;;;10.05;;
38266;SDS011;24063;51.794;19.578;2022-09-09T00:49:15;10.44;;;10.44;;
38266;SDS011;24063;51.794;19.578;2022-09-09T00:51:29;9.27;;;9.27;;
38266;SDS011;24063;51.794;19.578;2022-09-09T00:52:40;10.09;;;10.09;;
38266;SDS011;24063;51.794;19.578;2022-09-09T00:54:58;10.14;;;10.14;;
38266;SDS011;24063;51.794;19.578;2022-09-09T00:58:25;10.34;;;10.34;;
38266;SDS011;24063;51.794;19.578;2022-09-09T00:59:34;9.96;;;9.96;;
38266;SDS011;24063;51.794;19.578;2022-09-09T01:04:00;10.17;;;10.17;;
38266;SDS011;24063;51.794;19.578;2022-09-09T01:05:26;9.99;;;9.99;;
38266;SDS011;24063;51.794;19.578;2022-09-09T01:06:35;9.80;;;9.80;;
38266;SDS011;24063;51.794;19.578;2022-09-09T01:07:40;9.84;;;9.84;;
38266;SDS011;24063;51.794;19.578;2022-09-09T01:10:00;10.19;;;10.19;;
38266;SDS011;24063;51.794;19.578;2022-09-09T01:11:26;9.94;;;9.94;;
38266;SDS011;24063;51.794;19.578;2022-09-09T01:12:41;10.03;;;10.03;;
38266;SDS011;24063;51.794;19.578;2022-09-09T01:13:52;9.97;;;9.97;;
38266;SDS011;24063;51.794;19.578;2022-09-09T01:15:21;9.86;;;9.86;;
38266;SDS011;24063;51.794;19.578;2022-09-09T01:16:27;9.93;;;9.93;;
38266;SDS011;24063;51.794;19.578;2022-09-09T01:17:45;10.15;;;10.15;;
38266;SDS011;24063;51.794;19.578;2022-09-09T01:18:51;9.68;;;9.68;;
38266;SDS011;24063;51.794;19.578;2022-09-09T01:20:02;10.33;;;10.33;;
38266;SDS011;24063;51.794;19.578;2022-09-09T01:24:05;10.10;;;10.10;;
38266;SDS011;24063;51.794;19.578;2022-09-09T01:26:02;10.28;;;10.28;;
38266;SDS011;24063;51.794;19.578;2022-09-09T01:27:14;10.96;;;10.96;;
38266;SDS011;24063;51.794;19.578;2022-09-09T01:28:21;9.93;;;9.93;;
38266;SDS011;24063;51.794;19.578;2022-09-09T01:29:31;9.99;;;9.99;;
38266;SDS011;24063;51.794;19.578;2022-09-09T01:30:37;9.73;;;9.73;;
38266;SDS011;24063;51.794;19.578;2022-09-09T01:31:56;9.89;;;9.89;;
38266;SDS011;24063;51.794;19.578;2022-09-09T01:33:00;9.65;;;9.65;;
38266;SDS011;24063;51.794;19.578;2022-09-09T01:34:10;9.67;;;9.67;;
38266;SDS011;24063;51.794;19.578;2022-09-09T01:35:27;9.96;;;9.96;;
38266;SDS011;24063;51.794;19.578;2022-09-09T01:36:45;10.31;;;10.31;;
38266;SDS011;24063;51.794;19.578;2022-09-09T01:37:54;10.52;;;10.52;;
38266;SDS011;24063;51.794;19.578;2022-09-09T01:38:56;10.59;;;10.59;;
38266;SDS011;24063;51.794;19.578;2022-09-09T01:39:58;10.95;;;10.95;;
38266;SDS011;24063;51.794;19.578;2022-09-09T01:41:01;10.72;;;10.72;;
38266;SDS011;24063;51.794;19.578;2022-09-09T01:42:13;10.81;;;10.81;;
38266;SDS011;24063;51.794;19.578;2022-09-09T01:43:19;10.92;;;10.92;;
38266;SDS011;24063;51.794;19.578;2022-09-09T01:44:23;10.91;;;10.91;;
38266;SDS011;24063;51.794;19.578;2022-09-09T01:45:27;10.39;;;10.39;;
38266;SDS011;24063;51.794;19.578;2022-09-09T01:46:30;10.85;;;10.85;;
38266;SDS011;24063;51.794;19.578;2022-09-09T01:47:33;10.28;;;10.28;;
38266;SDS011;24063;51.794;19.578;2022-09-09T01:48:44;10.25;;;10.25;;
38266;SDS011;24063;51.794;19.578;2022-09-09T01:49:47;10.92;;;10.92;;
38266;SDS011;24063;51.794;19.578;2022-09-09T01:50:55;10.87;;;10.87;;
38266;SDS011;24063;51.794;19.578;2022-09-09T01:51:57;10.07;;;10.07;;
38266;SDS011;24063;51.794;19.578;2022-09-09T01:53:08;10.03;;;10.03;;
38266;SDS011;24063;51.794;19.578;2022-09-09T01:54:10;10.46;;;10.46;;
38266;SDS011;24063;51.794;19.578;2022-09-09T01:55:12;10.89;;;10.89;;
38266;SDS011;24063;51.794;19.578;2022-09-09T01:58:31;11.35;;;11.35;;
38266;SDS011;24063;51.794;19.578;2022-09-09T02:00:34;10.46;;;10.46;;
38266;SDS011;24063;51.794;19.578;2022-09-09T02:03:56;11.46;;;11.46;;
38266;SDS011;24063;51.794;19.578;2022-09-09T02:05:08;10.58;;;10.58;;
38266;SDS011;24063;51.794;19.578;2022-09-09T02:06:19;10.92;;;10.92;;
38266;SDS011;24063;51.794;19.578;2022-09-09T02:07:39;11.80;;;11.80;;
38266;SDS011;24063;51.794;19.578;2022-09-09T02:09:04;11.15;;;11.15;;
38266;SDS011;24063;51.794;19.578;2022-09-09T02:10:14;11.87;;;11.87;;
38266;SDS011;24063;51.794;19.578;2022-09-09T02:11:27;10.86;;;10.86;;
38266;SDS011;24063;51.794;19.578;2022-09-09T02:12:34;12.18;;;12.18;;
38266;SDS011;24063;51.794;19.578;2022-09-09T02:13:45;11.27;;;11.27;;
38266;SDS011;24063;51.794;19.578;2022-09-09T02:14:50;12.55;;;12.55;;
38266;SDS011;24063;51.794;19.578;2022-09-09T02:16:04;11.43;;;11.43;;
38266;SDS011;24063;51.794;19.578;2022-09-09T02:17:11;11.25;;;11.24;;
38266;SDS011;24063;51.794;19.578;2022-09-09T02:19:20;11.49;;;11.47;;
38266;SDS011;24063;51.794;19.578;2022-09-09T02:20:34;12.28;;;12.28;;
38266;SDS011;24063;51.794;19.578;2022-09-09T02:21:41;11.43;;;11.43;;
38266;SDS011;24063;51.794;19.578;2022-09-09T02:22:47;11.40;;;11.40;;
38266;SDS011;24063;51.794;19.578;2022-09-09T02:23:53;11.45;;;11.45;;
38266;SDS011;24063;51.794;19.578;2022-09-09T02:25:00;11.19;;;11.19;;
38266;SDS011;24063;51.794;19.578;2022-09-09T02:26:08;11.33;;;11.33;;
38266;SDS011;24063;51.794;19.578;2022-09-09T02:27:14;11.46;;;11.46;;
38266;SDS011;24063;51.794;19.578;2022-09-09T02:28:20;12.19;;;12.19;;
38266;SDS011;24063;51.794;19.578;2022-09-09T02:29:36;12.08;;;12.08;;
38266;SDS011;24063;51.794;19.578;2022-09-09T02:30:43;13.15;;;13.15;;
38266;SDS011;24063;51.794;19.578;2022-09-09T02:31:51;12.04;;;12.04;;
38266;SDS011;24063;51.794;19.578;2022-09-09T02:33:01;11.82;;;11.82;;
38266;SDS011;24063;51.794;19.578;2022-09-09T02:34:15;11.65;;;11.65;;
38266;SDS011;24063;51.794;19.578;2022-09-09T02:35:23;12.32;;;12.32;;
38266;SDS011;24063;51.794;19.578;2022-09-09T02:36:29;11.75;;;11.75;;
38266;SDS011;24063;51.794;19.578;2022-09-09T02:37:37;11.71;;;11.71;;
38266;SDS011;24063;51.794;19.578;2022-09-09T02:38:42;11.61;;;11.61;;
38266;SDS011;24063;51.794;19.578;2022-09-09T02:39:52;12.42;;;12.42;;
38266;SDS011;24063;51.794;19.578;2022-09-09T02:40:55;11.76;;;11.73;;
38266;SDS011;24063;51.794;19.578;2022-09-09T02:41:57;12.11;;;12.10;;
38266;SDS011;24063;51.794;19.578;2022-09-09T02:43:04;11.96;;;11.96;;
38266;SDS011;24063;51.794;19.578;2022-09-09T02:44:09;12.90;;;12.90;;
38266;SDS011;24063;51.794;19.578;2022-09-09T02:45:19;12.64;;;12.64;;
38266;SDS011;24063;51.794;19.578;2022-09-09T02:46:32;12.98;;;12.98;;
38266;SDS011;24063;51.794;19.578;2022-09-09T02:47:50;12.38;;;12.38;;
38266;SDS011;24063;51.794;19.578;2022-09-09T02:49:08;13.81;;;13.81;;
38266;SDS011;24063;51.794;19.578;2022-09-09T02:50:17;12.98;;;12.98;;
38266;SDS011;24063;51.794;19.578;2022-09-09T02:52:45;12.56;;;12.56;;
38266;SDS011;24063;51.794;19.578;2022-09-09T02:56:33;13.03;;;12.99;;
38266;SDS011;24063;51.794;19.578;2022-09-09T02:57:43;13.10;;;13.10;;
38266;SDS011;24063;51.794;19.578;2022-09-09T02:58:50;13.23;;;13.23;;
38266;SDS011;24063;51.794;19.578;2022-09-09T02:59:53;13.60;;;13.60;;
38266;SDS011;24063;51.794;19.578;2022-09-09T03:00:59;12.91;;;12.91;;
38266;SDS011;24063;51.794;19.578;2022-09-09T03:02:04;13.81;;;13.79;;
38266;SDS011;24063;51.794;19.578;2022-09-09T03:03:07;14.55;;;14.53;;
38266;SDS011;24063;51.794;19.578;2022-09-09T03:04:13;13.26;;;13.26;;
38266;SDS011;24063;51.794;19.578;2022-09-09T03:05:15;13.72;;;13.67;;
38266;SDS011;24063;51.794;19.578;2022-09-09T03:06:17;13.58;;;13.50;;
38266;SDS011;24063;51.794;19.578;2022-09-09T03:07:21;13.24;;;13.19;;
38266;SDS011;24063;51.794;19.578;2022-09-09T03:08:23;12.88;;;12.88;;
38266;SDS011;24063;51.794;19.578;2022-09-09T03:09:26;13.37;;;13.37;;
38266;SDS011;24063;51.794;19.578;2022-09-09T03:10:28;13.20;;;13.19;;
38266;SDS011;24063;51.794;19.578;2022-09-09T03:11:30;13.39;;;13.34;;
38266;SDS011;24063;51.794;19.578;2022-09-09T03:12:32;13.55;;;13.51;;
38266;SDS011;24063;51.794;19.578;2022-09-09T03:13:34;13.67;;;13.66;;
38266;SDS011;24063;51.794;19.578;2022-09-09T03:14:37;13.58;;;13.58;;
38266;SDS011;24063;51.794;19.578;2022-09-09T03:15:40;13.52;;;13.52;;
38266;SDS011;24063;51.794;19.578;2022-09-09T03:16:43;14.00;;;13.92;;
38266;SDS011;24063;51.794;19.578;2022-09-09T03:17:45;13.70;;;13.68;;
38266;SDS011;24063;51.794;19.578;2022-09-09T03:18:47;13.98;;;13.98;;
38266;SDS011;24063;51.794;19.578;2022-09-09T03:19:49;14.23;;;14.22;;
38266;SDS011;24063;51.794;19.578;2022-09-09T03:20:53;14.62;;;14.61;;
38266;SDS011;24063;51.794;19.578;2022-09-09T03:21:56;13.99;;;13.99;;
38266;SDS011;24063;51.794;19.578;2022-09-09T03:22:58;14.27;;;14.27;;
38266;SDS011;24063;51.794;19.578;2022-09-09T03:24:01;13.29;;;13.29;;
38266;SDS011;24063;51.794;19.578;2022-09-09T03:25:05;13.99;;;13.90;;
38266;SDS011;24063;51.794;19.578;2022-09-09T03:26:07;14.14;;;14.08;;
38266;SDS011;24063;51.794;19.578;2022-09-09T03:27:14;14.76;;;14.75;;
38266;SDS011;24063;51.794;19.578;2022-09-09T03:28:15;14.69;;;14.68;;
38266;SDS011;24063;51.794;19.578;2022-09-09T03:29:17;15.68;;;15.67;;
38266;SDS011;24063;51.794;19.578;2022-09-09T03:30:20;14.79;;;14.75;;
38266;SDS011;24063;51.794;19.578;2022-09-09T03:31:23;15.33;;;15.32;;
38266;SDS011;24063;51.794;19.578;2022-09-09T03:32:25;14.77;;;14.77;;
38266;SDS011;24063;51.794;19.578;2022-09-09T03:33:28;15.05;;;15.01;;
38266;SDS011;24063;51.794;19.578;2022-09-09T03:34:30;15.17;;;15.14;;
38266;SDS011;24063;51.794;19.578;2022-09-09T03:35:33;15.80;;;15.80;;
38266;SDS011;24063;51.794;19.578;2022-09-09T03:36:35;15.39;;;15.39;;
38266;SDS011;24063;51.794;19.578;2022-09-09T03:37:38;14.48;;;14.48;;
38266;SDS011;24063;51.794;19.578;2022-09-09T03:38:41;14.97;;;14.96;;
38266;SDS011;24063;51.794;19.578;2022-09-09T03:39:43;15.79;;;15.72;;
38266;SDS011;24063;51.794;19.578;2022-09-09T03:40:52;15.57;;;15.55;;
38266;SDS011;24063;51.794;19.578;2022-09-09T03:41:57;14.26;;;14.23;;
38266;SDS011;24063;51.794;19.578;2022-09-09T03:42:58;15.92;;;15.76;;
38266;SDS011;24063;51.794;19.578;2022-09-09T03:44:00;15.42;;;15.32;;
38266;SDS011;24063;51.794;19.578;2022-09-09T03:45:05;16.09;;;16.01;;
38266;SDS011;24063;51.794;19.578;2022-09-09T03:46:11;16.06;;;15.95;;
38266;SDS011;24063;51.794;19.578;2022-09-09T03:47:13;16.18;;;16.09;;
38266;SDS011;24063;51.794;19.578;2022-09-09T03:48:15;16.52;;;16.45;;
38266;SDS011;24063;51.794;19.578;2022-09-09T03:49:18;16.95;;;16.84;;
38266;SDS011;24063;51.794;19.578;2022-09-09T03:50:21;16.77;;;16.69;;
38266;SDS011;24063;51.794;19.578;2022-09-09T03:51:23;16.89;;;16.73;;
38266;SDS011;24063;51.794;19.578;2022-09-09T03:52:25;17.74;;;17.65;;
38266;SDS011;24063;51.794;19.578;2022-09-09T03:53:27;16.09;;;16.05;;
38266;SDS011;24063;51.794;19.578;2022-09-09T03:54:30;17.08;;;17.00;;
38266;SDS011;24063;51.794;19.578;2022-09-09T03:55:32;16.74;;;16.63;;
38266;SDS011;24063;51.794;19.578;2022-09-09T03:56:34;17.28;;;17.06;;
38266;SDS011;24063;51.794;19.578;2022-09-09T03:57:36;17.82;;;17.67;;
38266;SDS011;24063;51.794;19.578;2022-09-09T03:58:41;18.55;;;18.48;;
38266;SDS011;24063;51.794;19.578;2022-09-09T03:59:44;17.71;;;17.70;;
38266;SDS011;24063;51.794;19.578;2022-09-09T04:00:56;17.27;;;17.23;;
38266;SDS011;24063;51.794;19.578;2022-09-09T04:02:00;17.69;;;17.60;;
38266;SDS011;24063;51.794;19.578;2022-09-09T04:03:03;17.34;;;17.26;;
38266;SDS011;24063;51.794;19.578;2022-09-09T04:04:05;17.70;;;17.68;;
38266;SDS011;24063;51.794;19.578;2022-09-09T04:05:07;18.67;;;18.64;;
38266;SDS011;24063;51.794;19.578;2022-09-09T04:06:09;19.22;;;19.13;;
38266;SDS011;24063;51.794;19.578;2022-09-09T04:07:14;18.83;;;18.74;;
38266;SDS011;24063;51.794;19.578;2022-09-09T04:08:17;19.25;;;19.25;;
38266;SDS011;24063;51.794;19.578;2022-09-09T04:09:20;19.31;;;19.13;;
38266;SDS011;24063;51.794;19.578;2022-09-09T04:10:22;18.34;;;18.29;;
38266;SDS011;24063;51.794;19.578;2022-09-09T04:11:25;18.33;;;18.30;;
38266;SDS011;24063;51.794;19.578;2022-09-09T04:12:27;18.55;;;18.49;;
38266;SDS011;24063;51.794;19.578;2022-09-09T04:13:29;18.49;;;18.46;;
38266;SDS011;24063;51.794;19.578;2022-09-09T04:14:32;18.65;;;18.63;;
38266;SDS011;24063;51.794;19.578;2022-09-09T04:15:34;18.64;;;18.60;;
38266;SDS011;24063;51.794;19.578;2022-09-09T04:16:37;18.24;;;18.19;;
38266;SDS011;24063;51.794;19.578;2022-09-09T04:17:39;18.32;;;18.22;;
38266;SDS011;24063;51.794;19.578;2022-09-09T04:18:41;19.76;;;19.69;;
38266;SDS011;24063;51.794;19.578;2022-09-09T04:19:43;19.41;;;19.39;;
38266;SDS011;24063;51.794;19.578;2022-09-09T04:20:48;19.69;;;19.66;;
38266;SDS011;24063;51.794;19.578;2022-09-09T04:21:52;19.01;;;18.99;;
38266;SDS011;24063;51.794;19.578;2022-09-09T04:22:55;19.37;;;19.33;;
38266;SDS011;24063;51.794;19.578;2022-09-09T04:23:57;19.09;;;18.92;;
38266;SDS011;24063;51.794;19.578;2022-09-09T04:24:59;19.06;;;19.02;;
38266;SDS011;24063;51.794;19.578;2022-09-09T04:26:02;19.40;;;19.36;;
38266;SDS011;24063;51.794;19.578;2022-09-09T04:27:06;18.80;;;18.69;;
38266;SDS011;24063;51.794;19.578;2022-09-09T04:28:09;18.46;;;18.43;;
38266;SDS011;24063;51.794;19.578;2022-09-09T04:29:11;19.11;;;19.09;;
38266;SDS011;24063;51.794;19.578;2022-09-09T04:30:14;20.04;;;19.92;;
38266;SDS011;24063;51.794;19.578;2022-09-09T04:31:17;19.46;;;19.18;;
38266;SDS011;24063;51.794;19.578;2022-09-09T04:32:27;20.96;;;20.83;;
38266;SDS011;24063;51.794;19.578;2022-09-09T04:33:29;20.02;;;20.01;;
38266;SDS011;24063;51.794;19.578;2022-09-09T04:34:36;20.68;;;20.65;;
38266;SDS011;24063;51.794;19.578;2022-09-09T04:35:38;20.25;;;20.15;;
38266;SDS011;24063;51.794;19.578;2022-09-09T04:36:44;20.06;;;19.95;;
38266;SDS011;24063;51.794;19.578;2022-09-09T04:37:47;20.97;;;20.78;;
38266;SDS011;24063;51.794;19.578;2022-09-09T04:38:50;20.14;;;20.04;;
38266;SDS011;24063;51.794;19.578;2022-09-09T04:39:52;20.73;;;20.69;;
38266;SDS011;24063;51.794;19.578;2022-09-09T04:40:54;20.93;;;20.92;;
38266;SDS011;24063;51.794;19.578;2022-09-09T04:41:56;20.28;;;20.26;;
38266;SDS011;24063;51.794;19.578;2022-09-09T04:42:58;19.85;;;19.80;;
38266;SDS011;24063;51.794;19.578;2022-09-09T04:44:01;20.31;;;20.27;;
38266;SDS011;24063;51.794;19.578;2022-09-09T04:45:06;20.03;;;20.02;;
38266;SDS011;24063;51.794;19.578;2022-09-09T04:46:08;20.00;;;19.99;;
38266;SDS011;24063;51.794;19.578;2022-09-09T04:47:11;19.86;;;19.82;;
38266;SDS011;24063;51.794;19.578;2022-09-09T04:48:13;20.18;;;20.03;;
38266;SDS011;24063;51.794;19.578;2022-09-09T04:49:15;20.33;;;20.05;;
38266;SDS011;24063;51.794;19.578;2022-09-09T04:50:17;19.47;;;19.23;;
38266;SDS011;24063;51.794;19.578;2022-09-09T04:51:20;19.43;;;19.16;;
38266;SDS011;24063;51.794;19.578;2022-09-09T04:52:23;19.77;;;19.51;;
38266;SDS011;24063;51.794;19.578;2022-09-09T04:53:25;18.10;;;18.04;;
38266;SDS011;24063;51.794;19.578;2022-09-09T04:54:27;18.46;;;18.45;;
38266;SDS011;24063;51.794;19.578;2022-09-09T04:55:29;18.52;;;18.47;;
38266;SDS011;24063;51.794;19.578;2022-09-09T04:56:32;18.45;;;18.44;;
38266;SDS011;24063;51.794;19.578;2022-09-09T04:57:34;18.49;;;18.36;;
38266;SDS011;24063;51.794;19.578;2022-09-09T04:58:37;18.81;;;18.53;;
38266;SDS011;24063;51.794;19.578;2022-09-09T04:59:39;18.27;;;18.20;;
38266;SDS011;24063;51.794;19.578;2022-09-09T05:00:41;18.44;;;18.40;;
38266;SDS011;24063;51.794;19.578;2022-09-09T05:01:43;18.69;;;18.64;;
38266;SDS011;24063;51.794;19.578;2022-09-09T05:02:46;18.47;;;18.41;;
38266;SDS011;24063;51.794;19.578;2022-09-09T05:03:49;18.52;;;18.46;;
38266;SDS011;24063;51.794;19.578;2022-09-09T05:04:53;18.66;;;18.50;;
38266;SDS011;24063;51.794;19.578;2022-09-09T05:06:01;17.94;;;17.70;;
38266;SDS011;24063;51.794;19.578;2022-09-09T05:07:05;18.80;;;18.59;;
38266;SDS011;24063;51.794;19.578;2022-09-09T05:08:08;17.75;;;17.74;;
38266;SDS011;24063;51.794;19.578;2022-09-09T05:09:10;17.83;;;17.78;;
38266;SDS011;24063;51.794;19.578;2022-09-09T05:10:12;18.21;;;18.07;;
38266;SDS011;24063;51.794;19.578;2022-09-09T05:11:19;17.39;;;17.23;;
38266;SDS011;24063;51.794;19.578;2022-09-09T05:12:26;17.58;;;17.39;;
38266;SDS011;24063;51.794;19.578;2022-09-09T05:13:29;16.57;;;16.51;;
38266;SDS011;24063;51.794;19.578;2022-09-09T05:14:33;17.17;;;17.13;;
38266;SDS011;24063;51.794;19.578;2022-09-09T05:15:38;17.70;;;17.63;;
38266;SDS011;24063;51.794;19.578;2022-09-09T05:16:40;17.85;;;17.73;;
38266;SDS011;24063;51.794;19.578;2022-09-09T05:17:42;18.75;;;18.63;;
38266;SDS011;24063;51.794;19.578;2022-09-09T05:18:44;19.08;;;18.96;;
38266;SDS011;24063;51.794;19.578;2022-09-09T05:19:47;17.92;;;17.80;;
38266;SDS011;24063;51.794;19.578;2022-09-09T05:20:50;18.50;;;18.45;;
38266;SDS011;24063;51.794;19.578;2022-09-09T05:21:52;18.56;;;18.54;;
38266;SDS011;24063;51.794;19.578;2022-09-09T05:22:58;18.18;;;18.15;;
38266;SDS011;24063;51.794;19.578;2022-09-09T05:24:01;17.08;;;16.94;;
38266;SDS011;24063;51.794;19.578;2022-09-09T05:25:04;18.49;;;18.12;;
38266;SDS011;24063;51.794;19.578;2022-09-09T05:26:06;16.91;;;16.83;;
38266;SDS011;24063;51.794;19.578;2022-09-09T05:27:19;17.40;;;17.20;;
38266;SDS011;24063;51.794;19.578;2022-09-09T05:28:21;17.52;;;17.23;;
38266;SDS011;24063;51.794;19.578;2022-09-09T05:29:23;16.26;;;16.20;;
38266;SDS011;24063;51.794;19.578;2022-09-09T05:30:25;15.34;;;15.32;;
38266;SDS011;24063;51.794;19.578;2022-09-09T05:31:29;15.73;;;15.65;;
38266;SDS011;24063;51.794;19.578;2022-09-09T05:32:33;15.02;;;14.92;;
38266;SDS011;24063;51.794;19.578;2022-09-09T05:33:35;15.25;;;15.09;;
38266;SDS011;24063;51.794;19.578;2022-09-09T05:34:37;14.95;;;14.92;;
38266;SDS011;24063;51.794;19.578;2022-09-09T05:35:40;15.05;;;15.00;;
38266;SDS011;24063;51.794;19.578;2022-09-09T05:36:42;14.58;;;14.56;;
38266;SDS011;24063;51.794;19.578;2022-09-09T05:37:44;14.57;;;14.44;;
38266;SDS011;24063;51.794;19.578;2022-09-09T05:38:47;14.16;;;13.93;;
38266;SDS011;24063;51.794;19.578;2022-09-09T05:39:51;14.45;;;14.29;;
38266;SDS011;24063;51.794;19.578;2022-09-09T05:40:53;13.61;;;13.57;;
38266;SDS011;24063;51.794;19.578;2022-09-09T05:41:55;14.75;;;14.71;;
38266;SDS011;24063;51.794;19.578;2022-09-09T05:42:59;14.31;;;14.27;;
38266;SDS011;24063;51.794;19.578;2022-09-09T05:44:01;14.77;;;14.70;;
38266;SDS011;24063;51.794;19.578;2022-09-09T05:45:05;13.98;;;13.89;;
38266;SDS011;24063;51.794;19.578;2022-09-09T05:46:10;14.11;;;14.02;;
38266;SDS011;24063;51.794;19.578;2022-09-09T05:47:14;13.45;;;13.44;;
38266;SDS011;24063;51.794;19.578;2022-09-09T05:48:17;12.58;;;12.58;;
38266;SDS011;24063;51.794;19.578;2022-09-09T05:49:19;14.02;;;14.00;;
38266;SDS011;24063;51.794;19.578;2022-09-09T05:50:22;13.60;;;13.54;;
38266;SDS011;24063;51.794;19.578;2022-09-09T05:51:25;13.42;;;13.35;;
38266;SDS011;24063;51.794;19.578;2022-09-09T05:52:32;13.50;;;13.35;;
38266;SDS011;24063;51.794;19.578;2022-09-09T05:53:34;13.46;;;13.31;;
38266;SDS011;24063;51.794;19.578;2022-09-09T05:54:36;13.83;;;13.70;;
38266;SDS011;24063;51.794;19.578;2022-09-09T05:55:39;14.10;;;13.91;;
38266;SDS011;24063;51.794;19.578;2022-09-09T05:56:41;13.11;;;12.98;;
38266;SDS011;24063;51.794;19.578;2022-09-09T05:57:47;13.38;;;13.22;;
38266;SDS011;24063;51.794;19.578;2022-09-09T05:58:50;13.00;;;12.87;;
38266;SDS011;24063;51.794;19.578;2022-09-09T05:59:53;12.90;;;12.78;;
38266;SDS011;24063;51.794;19.578;2022-09-09T06:01:00;12.98;;;12.91;;
38266;SDS011;24063;51.794;19.578;2022-09-09T06:02:09;13.39;;;13.38;;
38266;SDS011;24063;51.794;19.578;2022-09-09T06:03:11;13.12;;;13.00;;
38266;SDS011;24063;51.794;19.578;2022-09-09T06:04:13;13.23;;;13.16;;
38266;SDS011;24063;51.794;19.578;2022-09-09T06:05:16;13.44;;;13.36;;
38266;SDS011;24063;51.794;19.578;2022-09-09T06:06:30;13.82;;;13.73;;
38266;SDS011;24063;51.794;19.578;2022-09-09T06:07:39;13.79;;;13.75;;
38266;SDS011;24063;51.794;19.578;2022-09-09T06:08:43;13.93;;;13.93;;
38266;SDS011;24063;51.794;19.578;2022-09-09T06:09:47;13.78;;;13.78;;
38266;SDS011;24063;51.794;19.578;2022-09-09T06:10:48;13.42;;;13.42;;
38266;SDS011;24063;51.794;19.578;2022-09-09T06:11:50;13.33;;;13.31;;
38266;SDS011;24063;51.794;19.578;2022-09-09T06:12:53;14.04;;;13.92;;
38266;SDS011;24063;51.794;19.578;2022-09-09T06:13:55;14.51;;;14.40;;
38266;SDS011;24063;51.794;19.578;2022-09-09T06:14:57;13.86;;;13.76;;
38266;SDS011;24063;51.794;19.578;2022-09-09T06:15:59;14.07;;;13.95;;
38266;SDS011;24063;51.794;19.578;2022-09-09T06:17:02;13.80;;;13.72;;
38266;SDS011;24063;51.794;19.578;2022-09-09T06:18:04;14.56;;;14.40;;
38266;SDS011;24063;51.794;19.578;2022-09-09T06:19:06;13.43;;;13.32;;
38266;SDS011;24063;51.794;19.578;2022-09-09T06:20:08;13.49;;;13.39;;
38266;SDS011;24063;51.794;19.578;2022-09-09T06:21:17;13.68;;;13.44;;
38266;SDS011;24063;51.794;19.578;2022-09-09T06:22:21;13.11;;;12.85;;
38266;SDS011;24063;51.794;19.578;2022-09-09T06:23:23;12.74;;;12.55;;
38266;SDS011;24063;51.794;19.578;2022-09-09T06:24:25;12.45;;;12.30;;
38266;SDS011;24063;51.794;19.578;2022-09-09T06:25:28;12.67;;;12.52;;
38266;SDS011;24063;51.794;19.578;2022-09-09T06:26:33;12.70;;;12.52;;
38266;SDS011;24063;51.794;19.578;2022-09-09T06:27:37;13.01;;;12.89;;
38266;SDS011;24063;51.794;19.578;2022-09-09T06:28:39;13.29;;;13.10;;
38266;SDS011;24063;51.794;19.578;2022-09-09T06:29:41;13.40;;;13.21;;
38266;SDS011;24063;51.794;19.578;2022-09-09T06:30:42;13.61;;;13.37;;
38266;SDS011;24063;51.794;19.578;2022-09-09T06:31:44;13.49;;;13.30;;
38266;SDS011;24063;51.794;19.578;2022-09-09T06:32:49;13.47;;;13.35;;
38266;SDS011;24063;51.794;19.578;2022-09-09T06:33:52;12.64;;;12.51;;
38266;SDS011;24063;51.794;19.578;2022-09-09T06:34:57;12.94;;;12.71;;
38266;SDS011;24063;51.794;19.578;2022-09-09T06:36:00;12.24;;;11.97;;
38266;SDS011;24063;51.794;19.578;2022-09-09T06:37:03;12.51;;;12.43;;
38266;SDS011;24063;51.794;19.578;2022-09-09T06:38:10;12.49;;;12.29;;
38266;SDS011;24063;51.794;19.578;2022-09-09T06:39:12;12.15;;;11.91;;
38266;SDS011;24063;51.794;19.578;2022-09-09T06:40:15;11.85;;;11.60;;
38266;SDS011;24063;51.794;19.578;2022-09-09T06:41:18;11.99;;;11.73;;
38266;SDS011;24063;51.794;19.578;2022-09-09T06:42:22;12.49;;;12.18;;
38266;SDS011;24063;51.794;19.578;2022-09-09T06:43:44;11.52;;;11.26;;
38266;SDS011;24063;51.794;19.578;2022-09-09T06:44:50;11.90;;;11.62;;
38266;SDS011;24063;51.794;19.578;2022-09-09T06:46:06;12.03;;;11.83;;
38266;SDS011;24063;51.794;19.578;2022-09-09T06:47:12;11.95;;;11.73;;
38266;SDS011;24063;51.794;19.578;2022-09-09T06:48:14;12.52;;;12.17;;
38266;SDS011;24063;51.794;19.578;2022-09-09T06:49:16;12.05;;;11.76;;
38266;SDS011;24063;51.794;19.578;2022-09-09T06:50:17;11.66;;;11.43;;
38266;SDS011;24063;51.794;19.578;2022-09-09T06:51:20;13.14;;;12.86;;
38266;SDS011;24063;51.794;19.578;2022-09-09T06:52:23;12.67;;;12.11;;
38266;SDS011;24063;51.794;19.578;2022-09-09T06:53:27;12.08;;;11.60;;
38266;SDS011;24063;51.794;19.578;2022-09-09T06:54:31;11.54;;;11.19;;
38266;SDS011;24063;51.794;19.578;2022-09-09T06:55:33;11.58;;;11.27;;
38266;SDS011;24063;51.794;19.578;2022-09-09T06:56:35;11.69;;;11.48;;
38266;SDS011;24063;51.794;19.578;2022-09-09T06:57:44;12.35;;;12.10;;
38266;SDS011;24063;51.794;19.578;2022-09-09T06:58:50;11.88;;;11.49;;
38266;SDS011;24063;51.794;19.578;2022-09-09T06:59:58;11.98;;;11.71;;